UPSVAC Airport Information Service

Fargo Hector International Airport

ICAO: KFAR Country: United States
Latitude: 46.9207 Longitude: -96.8157
Latest Arrival : UPS1017 (KSDF-KFAR) Latest Departure : UPS1014 (KFAR-KSBD)


WX CaptureLIVE
Data provided by noaa.gov | Fetched at 10:30:42

METAR : KFAR 010953Z 35012KT 10SM CLR M16/M21 A3030 RMK AO2 SLP282 T11611206

TAF : KFAR 010520Z 0106/0206 01014KT 4SM -SN OVC015 TEMPO 0106/0107 1SM -SN OVC010 FM010800 01014KT P6SM BKN035 FM010900 06008KT P6SM SKC FM012300 17011G19KT P6SM FEW250 FM020300 18016G24KT P6SM FEW250 WS020/22040KT


Runway Data for KFAR
Data provided by openaviationdata.com

Runway ID Mag Var Hdg Length Elevation Surface ILS Freq ILS Id ILS Slope
9 4 86° 6288 ft 902 ft Concrete -- -- --
13 4 133° 3798 ft 902 ft Asphalt -- -- --
18 4 176° 8998 ft 902 ft Concrete 108.9 IAAM 3
27 4 266° 6288 ft 902 ft Concrete -- -- --
31 4 313° 3798 ft 902 ft Asphalt -- -- --
36 4 356° 8998 ft 902 ft Concrete 110.3 IFAR 3

Fargo Hector International Airport, United States
Use only for reference purposes



Not for navigational purposes.